Time;durP1;ratioP1;P1;durP2;ratioP2;P2;SDS_P1;SDS_P2;PMS_P1;PMS_P2;Temp;Humidity;BMP_temperature;BMP_pressure;BME280_temperature;BME280_humidity;BME280_pressure;Samples;Min_cycle;Max_cycle;Signal;HPM_P1;HPM_P2
2023/12/29 00:01:44;;;;;;;4.13;1.00;;;12.80;76.20;;;;;;5039743;28;20027;-67
2023/12/29 00:04:10;;;;;;;2.88;0.88;;;12.80;75.80;;;;;;5039387;28;20052;-67
2023/12/29 00:06:39;;;;;;;6.15;1.42;;;12.80;75.70;;;;;;5041869;28;20457;-67
2023/12/29 00:09:05;;;;;;;7.03;1.25;;;12.80;75.50;;;;;;5049468;28;20098;-67
2023/12/29 00:11:31;;;;;;;1.65;0.63;;;12.90;75.40;;;;;;5042584;28;20033;-67
2023/12/29 00:13:57;;;;;;;3.10;1.10;;;12.90;75.40;;;;;;5045537;28;20185;-67
2023/12/29 00:16:22;;;;;;;1.63;0.93;;;12.90;75.20;;;;;;5037770;28;20041;-65
2023/12/29 00:18:48;;;;;;;3.45;0.73;;;12.90;75.00;;;;;;5048105;28;20056;-65
2023/12/29 00:21:14;;;;;;;5.82;1.17;;;12.90;75.00;;;;;;5051927;28;20500;-65
2023/12/29 00:23:40;;;;;;;1.67;0.80;;;12.90;75.50;;;;;;5056004;28;20120;-65
2023/12/29 00:26:06;;;;;;;5.65;1.25;;;13.00;75.00;;;;;;5048193;28;20033;-65
2023/12/29 00:28:31;;;;;;;2.72;0.73;;;13.00;74.80;;;;;;5048341;28;20094;-64
2023/12/29 00:30:57;;;;;;;1.15;0.77;;;13.00;74.80;;;;;;5051581;28;20483;-64
2023/12/29 00:33:23;;;;;;;3.22;1.80;;;13.00;75.20;;;;;;5040250;28;20048;-64
2023/12/29 00:35:48;;;;;;;2.85;0.98;;;12.90;77.00;;;;;;5052042;28;20036;-64
2023/12/29 00:38:14;;;;;;;1.83;0.98;;;12.70;78.00;;;;;;5049493;28;20046;-65
2023/12/29 00:40:40;;;;;;;3.20;0.88;;;12.60;78.90;;;;;;5046672;28;20040;-64
2023/12/29 00:43:05;;;;;;;2.95;0.90;;;12.50;79.20;;;;;;5051149;28;20060;-64
2023/12/29 00:45:35;;;;;;;2.90;0.68;;;12.50;79.40;;;;;;5043625;28;20017;-67
2023/12/29 00:48:02;;;;;;;3.25;0.90;;;12.40;79.40;;;;;;5048249;28;20353;-68
2023/12/29 00:50:28;;;;;;;3.15;0.95;;;12.40;79.50;;;;;;5047405;28;20639;-67
2023/12/29 00:52:53;;;;;;;2.38;1.10;;;12.40;79.50;;;;;;5050386;28;20036;-67
2023/12/29 00:55:19;;;;;;;1.63;0.98;;;12.40;79.90;;;;;;5048679;28;20040;-67
2023/12/29 00:57:45;;;;;;;3.72;1.13;;;12.40;78.90;;;;;;5051068;28;20025;-64
2023/12/29 01:00:12;;;;;;;2.83;1.23;;;12.40;78.70;;;;;;5045392;28;20060;-64
2023/12/29 01:02:38;;;;;;;2.65;1.02;;;12.50;78.50;;;;;;5044568;28;20033;-64
2023/12/29 01:05:05;;;;;;;6.28;0.93;;;12.50;78.00;;;;;;5043084;28;20037;-65
2023/12/29 01:07:31;;;;;;;5.35;2.15;;;12.60;77.80;;;;;;5041971;28;20495;-67
2023/12/29 01:09:56;;;;;;;4.03;1.00;;;12.60;77.40;;;;;;5048217;28;20099;-67
2023/12/29 01:12:22;;;;;;;5.85;1.40;;;12.60;77.30;;;;;;5043723;28;20041;-64
2023/12/29 01:14:48;;;;;;;4.38;1.50;;;12.70;77.20;;;;;;5042290;28;20037;-64
2023/12/29 01:17:14;;;;;;;0.93;0.90;;;12.70;77.00;;;;;;5047736;28;20028;-64
2023/12/29 01:19:39;;;;;;;2.95;1.15;;;12.70;76.90;;;;;;5048848;28;20567;-67
2023/12/29 01:22:05;;;;;;;1.58;0.73;;;12.70;77.00;;;;;;5054734;28;20100;-67
2023/12/29 01:24:31;;;;;;;1.05;0.90;;;12.70;77.00;;;;;;5055999;28;20025;-67
2023/12/29 01:26:56;;;;;;;4.18;1.33;;;12.70;77.10;;;;;;5054876;28;20563;-67
2023/12/29 01:29:22;;;;;;;3.38;1.00;;;12.70;77.30;;;;;;5045896;28;20044;-67
2023/12/29 01:31:48;;;;;;;1.70;0.80;;;12.70;77.40;;;;;;5054581;28;20377;-67
2023/12/29 01:34:14;;;;;;;2.28;1.10;;;12.70;77.50;;;;;;5059351;28;20154;-67
2023/12/29 01:36:39;;;;;;;0.77;0.77;;;12.60;77.90;;;;;;5058951;28;20397;-67
2023/12/29 01:39:05;;;;;;;2.13;1.40;;;12.60;78.20;;;;;;5051081;28;20113;-67
2023/12/29 01:41:31;;;;;;;3.05;1.00;;;12.60;78.40;;;;;;5046848;28;20113;-67
2023/12/29 01:44:00;;;;;;;1.98;0.95;;;12.50;78.50;;;;;;5059532;28;20115;-67
2023/12/29 01:46:31;;;;;;;3.60;0.90;;;12.50;78.60;;;;;;5048176;28;20032;-65
2023/12/29 01:48:58;;;;;;;11.52;1.75;;;12.50;78.70;;;;;;5034211;28;20029;-65
2023/12/29 01:51:26;;;;;;;4.13;1.13;;;12.50;78.80;;;;;;5049026;28;20079;-65
2023/12/29 01:53:54;;;;;;;2.63;1.13;;;12.50;79.00;;;;;;5052950;28;20035;-65
2023/12/29 01:56:20;;;;;;;0.63;0.63;;;12.50;79.00;;;;;;5052132;28;20052;-65
2023/12/29 01:58:50;;;;;;;0.70;0.70;;;12.50;79.00;;;;;;5047090;28;20029;-67
2023/12/29 02:01:18;;;;;;;3.00;1.08;;;12.50;79.00;;;;;;5048282;28;20063;-67
2023/12/29 02:03:45;;;;;;;3.67;1.15;;;12.50;79.00;;;;;;5038731;28;20481;-67
2023/12/29 02:06:12;;;;;;;5.47;2.00;;;12.50;79.00;;;;;;5043579;28;20040;-68
2023/12/29 02:08:38;;;;;;;3.28;1.88;;;12.50;79.00;;;;;;5041409;28;20034;-68
2023/12/29 02:11:04;;;;;;;3.55;1.00;;;12.50;78.80;;;;;;5042379;28;20028;-67
2023/12/29 02:13:30;;;;;;;2.78;0.93;;;12.50;78.90;;;;;;5041852;28;20365;-67
2023/12/29 02:16:02;;;;;;;1.77;1.00;;;12.50;78.90;;;;;;5050131;28;20028;-67
2023/12/29 02:18:31;;;;;;;1.58;0.85;;;12.50;78.90;;;;;;5053936;28;20041;-67
2023/12/29 02:20:57;;;;;;;3.67;0.95;;;12.50;79.00;;;;;;5043920;28;20072;-67
2023/12/29 02:23:22;;;;;;;1.80;0.80;;;12.50;79.10;;;;;;5041099;28;20053;-67
2023/12/29 02:25:49;;;;;;;4.03;1.63;;;12.50;79.20;;;;;;5045975;28;20029;-67
2023/12/29 02:28:23;;;;;;;2.80;0.85;;;12.50;79.40;;;;;;5036076;28;20608;-67
2023/12/29 02:31:06;;;;;;;2.08;1.25;;;12.50;79.50;;;;;;5044843;28;20108;-67
2023/12/29 02:33:36;;;;;;;1.02;0.98;;;12.40;80.00;;;;;;5051161;28;20021;-65
2023/12/29 02:36:03;;;;;;;3.83;1.20;;;12.30;80.50;;;;;;5045503;28;20024;-64
2023/12/29 02:38:29;;;;;;;3.30;1.10;;;12.30;80.60;;;;;;5058665;28;20451;-64
2023/12/29 02:40:58;;;;;;;4.13;1.58;;;12.30;80.90;;;;;;5050853;28;20032;-64
2023/12/29 02:43:24;;;;;;;6.22;1.33;;;12.30;81.10;;;;;;5056615;28;20036;-65
2023/12/29 02:45:50;;;;;;;1.23;0.85;;;12.20;81.20;;;;;;5047987;28;20423;-65
2023/12/29 02:48:16;;;;;;;1.73;0.98;;;12.20;81.20;;;;;;5054703;28;20031;-64
2023/12/29 02:50:41;;;;;;;2.25;0.50;;;12.30;81.30;;;;;;5054405;28;20029;-65
2023/12/29 02:53:07;;;;;;;1.92;0.80;;;12.30;81.30;;;;;;5055470;28;20021;-64
2023/12/29 02:55:33;;;;;;;1.75;1.13;;;12.30;81.40;;;;;;5053465;28;20033;-65
2023/12/29 02:57:59;;;;;;;3.42;0.82;;;12.30;81.40;;;;;;5036351;28;20032;-64
2023/12/29 03:00:24;;;;;;;5.82;1.63;;;12.30;81.50;;;;;;5049151;28;20044;-64
2023/12/29 03:02:50;;;;;;;2.15;0.70;;;12.30;81.50;;;;;;5045356;28;20541;-65
2023/12/29 03:05:16;;;;;;;4.70;0.93;;;12.30;81.60;;;;;;5052232;28;20482;-65
2023/12/29 03:07:41;;;;;;;1.95;1.20;;;12.20;81.60;;;;;;5050565;28;20067;-65
2023/12/29 03:10:08;;;;;;;8.88;0.95;;;12.20;81.80;;;;;;5057522;28;20018;-64
2023/12/29 03:12:33;;;;;;;2.83;1.50;;;12.20;81.80;;;;;;5042433;28;20028;-65
2023/12/29 03:14:59;;;;;;;7.38;0.98;;;12.20;81.90;;;;;;5048777;28;20022;-64
2023/12/29 03:17:25;;;;;;;6.07;1.65;;;12.20;81.90;;;;;;5054221;28;20541;-64
2023/12/29 03:19:52;;;;;;;3.30;1.10;;;12.20;81.90;;;;;;5055976;28;20038;-64
2023/12/29 03:22:18;;;;;;;1.92;0.68;;;12.10;82.20;;;;;;5055891;28;20032;-64
2023/12/29 03:24:43;;;;;;;3.97;1.15;;;12.20;82.30;;;;;;5056671;28;20587;-64
2023/12/29 03:27:09;;;;;;;3.90;0.85;;;12.20;82.40;;;;;;5055400;28;20128;-64
2023/12/29 03:29:36;;;;;;;1.70;1.30;;;12.20;82.50;;;;;;5057538;28;20024;-64
2023/12/29 03:32:01;;;;;;;3.47;0.77;;;12.10;82.50;;;;;;5045783;28;20029;-64
2023/12/29 03:34:27;;;;;;;4.50;1.00;;;12.10;82.40;;;;;;5051914;28;20090;-64
2023/12/29 03:36:53;;;;;;;1.08;0.98;;;12.10;82.10;;;;;;5048100;28;20537;-64
2023/12/29 03:39:18;;;;;;;5.32;1.88;;;12.10;81.90;;;;;;5048556;28;20104;-64
2023/12/29 03:41:44;;;;;;;8.25;1.13;;;12.20;81.80;;;;;;5047072;28;20031;-64
2023/12/29 03:44:10;;;;;;;4.68;0.95;;;12.20;81.60;;;;;;5049515;28;20503;-64
2023/12/29 03:46:36;;;;;;;2.90;1.30;;;12.20;81.60;;;;;;5048496;28;20067;-64
2023/12/29 03:49:02;;;;;;;3.30;1.40;;;12.20;81.50;;;;;;5048293;28;20017;-64
2023/12/29 03:51:29;;;;;;;5.22;1.27;;;12.20;81.50;;;;;;5054762;28;20035;-64
2023/12/29 03:53:54;;;;;;;4.03;1.55;;;12.20;81.50;;;;;;5044853;28;20090;-64
2023/12/29 03:56:20;;;;;;;2.53;1.77;;;12.30;81.50;;;;;;5044724;28;20499;-64
2023/12/29 03:58:46;;;;;;;5.35;1.67;;;12.30;81.30;;;;;;5045516;28;20780;-64
2023/12/29 04:01:17;;;;;;;3.60;1.02;;;12.30;81.00;;;;;;5046472;28;20156;-64
2023/12/29 04:03:43;;;;;;;2.95;1.20;;;12.30;80.70;;;;;;5038171;28;20030;-64
2023/12/29 04:06:09;;;;;;;2.47;1.17;;;12.30;80.70;;;;;;5045488;28;20021;-64
2023/12/29 04:08:36;;;;;;;2.55;0.98;;;12.30;80.70;;;;;;5045885;28;20045;-64
2023/12/29 04:11:03;;;;;;;3.00;1.52;;;12.30;80.70;;;;;;5049343;28;20036;-64
2023/12/29 04:13:29;;;;;;;2.50;1.23;;;12.30;80.60;;;;;;5039758;28;20034;-65
2023/12/29 04:15:55;;;;;;;6.82;1.80;;;12.30;80.50;;;;;;5038396;28;20036;-64
2023/12/29 04:18:22;;;;;;;5.78;1.35;;;12.30;79.90;;;;;;5043316;28;20017;-64
2023/12/29 04:20:49;;;;;;;6.28;1.60;;;12.30;79.50;;;;;;5039011;28;20040;-64
2023/12/29 04:23:14;;;;;;;3.00;1.23;;;12.40;79.10;;;;;;5047582;28;20021;-67
2023/12/29 04:25:40;;;;;;;5.72;1.38;;;12.40;78.90;;;;;;5049205;28;20038;-67
2023/12/29 04:28:07;;;;;;;4.47;1.10;;;12.40;78.60;;;;;;5046162;28;20041;-67
2023/12/29 04:30:33;;;;;;;4.30;0.98;;;12.40;78.00;;;;;;5052652;28;20033;-64
2023/12/29 04:32:59;;;;;;;2.50;1.17;;;12.40;77.90;;;;;;5048039;28;20503;-64
2023/12/29 04:35:25;;;;;;;5.78;1.40;;;12.40;77.90;;;;;;5045710;28;20037;-64
2023/12/29 04:37:51;;;;;;;4.32;1.13;;;12.50;77.90;;;;;;5041970;28;20048;-64
2023/12/29 04:40:17;;;;;;;9.43;1.70;;;12.50;77.70;;;;;;5042723;28;20039;-64
2023/12/29 04:42:42;;;;;;;7.82;1.85;;;12.50;77.60;;;;;;5054843;28;20506;-64
2023/12/29 04:45:08;;;;;;;2.97;1.35;;;12.50;77.40;;;;;;5049921;28;20033;-64
2023/12/29 04:47:34;;;;;;;4.38;1.92;;;12.50;77.30;;;;;;5055329;28;20052;-64
2023/12/29 04:50:00;;;;;;;4.30;1.42;;;12.40;77.30;;;;;;5048612;28;20029;-64
2023/12/29 04:52:25;;;;;;;4.88;1.23;;;12.50;77.40;;;;;;5058967;28;20028;-64
2023/12/29 04:54:52;;;;;;;3.40;1.67;;;12.50;77.20;;;;;;5052634;28;20033;-64
2023/12/29 04:57:18;;;;;;;1.65;0.80;;;12.50;77.00;;;;;;5057915;28;20052;-64
2023/12/29 04:59:43;;;;;;;1.42;1.05;;;12.50;76.90;;;;;;5054954;28;20091;-64
2023/12/29 05:02:09;;;;;;;1.70;1.15;;;12.50;77.00;;;;;;5037916;28;20037;-64
2023/12/29 05:04:35;;;;;;;3.80;1.73;;;12.50;76.70;;;;;;5050288;28;20060;-65
2023/12/29 05:07:00;;;;;;;8.45;1.52;;;12.50;76.60;;;;;;5044391;28;20566;-64
2023/12/29 05:09:26;;;;;;;8.00;1.98;;;12.50;76.20;;;;;;5057860;28;20102;-64
2023/12/29 05:11:52;;;;;;;8.88;1.60;;;12.50;76.20;;;;;;5051210;28;20021;-64
2023/12/29 05:14:17;;;;;;;3.30;1.35;;;12.50;76.00;;;;;;5049731;28;20048;-64
2023/12/29 05:16:44;;;;;;;1.80;1.42;;;12.50;76.00;;;;;;5051099;28;20425;-64
2023/12/29 05:19:10;;;;;;;1.27;1.00;;;12.50;75.70;;;;;;5046947;28;20052;-64
2023/12/29 05:21:36;;;;;;;1.40;1.30;;;12.50;75.90;;;;;;5052462;28;20061;-64
2023/12/29 05:24:03;;;;;;;3.53;1.50;;;12.50;75.80;;;;;;5055393;28;20039;-64
2023/12/29 05:26:29;;;;;;;5.10;1.83;;;12.60;75.90;;;;;;5057854;28;20021;-65
2023/12/29 05:28:55;;;;;;;2.33;0.95;;;12.60;75.80;;;;;;5060253;28;20139;-65
2023/12/29 05:31:20;;;;;;;4.43;1.25;;;12.60;75.50;;;;;;5050271;28;20397;-65
2023/12/29 05:33:46;;;;;;;8.85;2.22;;;12.50;75.40;;;;;;5045587;28;20087;-65
2023/12/29 05:36:12;;;;;;;5.88;1.40;;;12.50;75.50;;;;;;5052201;28;20033;-65
2023/12/29 05:38:38;;;;;;;2.95;1.20;;;12.50;75.60;;;;;;5053407;28;20128;-65
2023/12/29 05:41:04;;;;;;;8.75;2.17;;;12.50;75.80;;;;;;5055700;28;20032;-64
2023/12/29 05:43:32;;;;;;;4.93;1.20;;;12.50;75.70;;;;;;5048642;28;20087;-65
2023/12/29 05:45:58;;;;;;;4.55;1.30;;;12.50;75.70;;;;;;5050839;28;20071;-65
2023/12/29 05:48:24;;;;;;;6.43;1.27;;;12.50;75.80;;;;;;5044979;28;20017;-65
2023/12/29 05:50:51;;;;;;;3.25;1.35;;;12.50;75.70;;;;;;5053552;28;20431;-65
2023/12/29 05:53:16;;;;;;;3.25;1.33;;;12.50;75.80;;;;;;5050656;28;20024;-65
2023/12/29 05:55:44;;;;;;;3.75;1.63;;;12.50;75.70;;;;;;5056964;28;20086;-65
2023/12/29 05:58:09;;;;;;;2.88;1.65;;;12.50;75.80;;;;;;5049717;28;20040;-65
2023/12/29 06:00:36;;;;;;;1.90;1.30;;;12.50;75.80;;;;;;5053423;28;20396;-64
2023/12/29 06:03:04;;;;;;;2.80;1.15;;;12.50;75.80;;;;;;5044727;28;20069;-64
2023/12/29 06:05:30;;;;;;;4.43;1.75;;;12.40;75.80;;;;;;5050188;28;20340;-64
2023/12/29 06:07:55;;;;;;;6.25;1.67;;;12.50;75.90;;;;;;5050735;28;20471;-68
2023/12/29 06:10:21;;;;;;;6.22;1.92;;;12.40;75.80;;;;;;5046035;28;20386;-67
2023/12/29 06:12:47;;;;;;;2.58;1.13;;;12.40;76.00;;;;;;5052773;28;20064;-67
2023/12/29 06:15:14;;;;;;;4.40;1.77;;;12.40;76.00;;;;;;5043303;28;20110;-67
2023/12/29 06:17:40;;;;;;;3.47;1.45;;;12.40;76.20;;;;;;5056892;28;20032;-64
2023/12/29 06:20:07;;;;;;;7.25;2.40;;;12.40;76.10;;;;;;5057334;28;20040;-64
2023/12/29 06:22:33;;;;;;;4.55;1.98;;;12.40;76.20;;;;;;5062621;28;20039;-68
2023/12/29 06:24:59;;;;;;;7.15;1.85;;;12.40;76.30;;;;;;5040235;28;20033;-68
2023/12/29 06:27:25;;;;;;;6.30;1.90;;;12.40;76.30;;;;;;5042969;28;20080;-68
2023/12/29 06:29:51;;;;;;;3.63;0.93;;;12.40;76.30;;;;;;5047110;28;20023;-68
2023/12/29 06:32:17;;;;;;;2.38;0.95;;;12.40;76.30;;;;;;5042004;28;20037;-68
2023/12/29 06:34:43;;;;;;;6.00;1.30;;;12.40;76.40;;;;;;5049614;28;20484;-67
2023/12/29 06:37:08;;;;;;;11.50;1.25;;;12.40;76.40;;;;;;5043709;28;20025;-67
2023/12/29 06:39:34;;;;;;;6.90;1.80;;;12.50;76.50;;;;;;5044701;28;20401;-67
2023/12/29 06:42:00;;;;;;;2.75;0.98;;;12.40;76.60;;;;;;5051900;28;20115;-67
2023/12/29 06:44:25;;;;;;;6.20;2.90;;;12.40;76.70;;;;;;5048406;28;20021;-67
2023/12/29 06:46:51;;;;;;;3.70;1.05;;;12.40;76.80;;;;;;5042524;28;20043;-68
2023/12/29 06:49:17;;;;;;;6.03;1.65;;;12.40;76.90;;;;;;5050031;28;20028;-68
2023/12/29 06:51:42;;;;;;;2.70;1.13;;;12.40;76.90;;;;;;5048204;28;21153;-67
2023/12/29 06:54:08;;;;;;;2.95;1.60;;;12.40;77.00;;;;;;5046115;28;20307;-64
2023/12/29 06:56:34;;;;;;;3.50;1.45;;;12.40;77.20;;;;;;5045131;28;20472;-64
2023/12/29 06:59:00;;;;;;;5.00;0.93;;;12.40;77.30;;;;;;5043903;28;20067;-64
2023/12/29 07:01:25;;;;;;;7.95;2.03;;;12.40;77.40;;;;;;5047081;28;20380;-64
2023/12/29 07:03:51;;;;;;;2.75;1.75;;;12.40;77.40;;;;;;5045135;28;20067;-64
2023/12/29 07:06:17;;;;;;;4.63;1.27;;;12.40;77.50;;;;;;5051534;28;20532;-64
2023/12/29 07:08:42;;;;;;;2.88;1.13;;;12.40;77.60;;;;;;5046613;28;20094;-69
2023/12/29 07:11:12;;;;;;;1.70;0.75;;;12.30;78.40;;;;;;5038747;28;20029;-69
2023/12/29 07:13:38;;;;;;;3.40;1.25;;;12.30;79.30;;;;;;5047172;28;20120;-69
2023/12/29 07:16:04;;;;;;;1.23;0.77;;;12.20;79.80;;;;;;5043146;28;20354;-69
2023/12/29 07:18:30;;;;;;;5.28;1.23;;;12.10;80.10;;;;;;5059756;28;20033;-68
2023/12/29 07:20:56;;;;;;;1.92;0.82;;;12.10;80.30;;;;;;5054594;28;20033;-69
2023/12/29 07:23:21;;;;;;;3.90;1.52;;;12.10;80.80;;;;;;5028447;28;20108;-69
2023/12/29 07:25:48;;;;;;;3.22;0.93;;;12.00;81.10;;;;;;5053766;28;20083;-69
2023/12/29 07:28:14;;;;;;;5.20;1.05;;;12.00;81.50;;;;;;5053341;28;20492;-69
2023/12/29 07:30:39;;;;;;;3.15;0.98;;;11.90;81.70;;;;;;5025207;28;20054;-70
2023/12/29 07:33:05;;;;;;;8.25;1.55;;;11.80;82.10;;;;;;5038101;28;20091;-69
2023/12/29 07:35:31;;;;;;;2.55;0.70;;;11.80;82.20;;;;;;5046494;28;20467;-69
2023/12/29 07:37:57;;;;;;;0.60;0.60;;;11.80;82.50;;;;;;5041109;28;20028;-69
2023/12/29 07:40:23;;;;;;;1.02;0.93;;;11.80;82.60;;;;;;5043943;28;20051;-68
2023/12/29 07:42:50;;;;;;;3.78;1.80;;;11.70;82.80;;;;;;5044191;28;20025;-67
2023/12/29 07:45:16;;;;;;;1.48;1.05;;;11.70;83.10;;;;;;5041226;28;20046;-65
2023/12/29 07:47:42;;;;;;;3.50;0.93;;;11.70;83.40;;;;;;5041183;28;20033;-65
2023/12/29 07:50:08;;;;;;;2.60;1.08;;;11.70;83.40;;;;;;5051873;28;20112;-66
2023/12/29 07:52:34;;;;;;;4.60;1.02;;;11.70;83.60;;;;;;5046532;28;20040;-66
2023/12/29 07:55:00;;;;;;;4.45;0.88;;;11.70;83.70;;;;;;5048722;28;20075;-68
2023/12/29 07:57:26;;;;;;;2.22;1.10;;;11.70;84.00;;;;;;5054869;28;20037;-69
2023/12/29 07:59:51;;;;;;;3.33;0.90;;;11.70;84.60;;;;;;5047672;28;20104;-67
2023/12/29 08:02:17;;;;;;;3.60;1.42;;;11.60;84.90;;;;;;5046311;28;20029;-68
2023/12/29 08:04:46;;;;;;;1.75;1.02;;;11.60;85.00;;;;;;5050525;28;20052;-65
2023/12/29 08:07:12;;;;;;;3.63;1.15;;;11.70;84.90;;;;;;5046104;28;20397;-64
2023/12/29 08:09:37;;;;;;;4.05;1.55;;;11.70;85.20;;;;;;5043054;28;20025;-63
2023/12/29 08:12:04;;;;;;;2.65;1.08;;;11.70;85.00;;;;;;5043612;28;20028;-69
2023/12/29 08:14:29;;;;;;;1.40;0.95;;;11.80;84.90;;;;;;5047727;28;20104;-66
2023/12/29 08:16:56;;;;;;;2.08;1.08;;;11.80;84.80;;;;;;5047303;28;20027;-66
2023/12/29 08:19:22;;;;;;;4.13;1.00;;;11.80;84.80;;;;;;5054313;28;20033;-65
2023/12/29 08:21:48;;;;;;;0.75;0.75;;;11.80;85.00;;;;;;5057153;28;20107;-67
2023/12/29 08:24:14;;;;;;;2.65;0.90;;;11.70;85.10;;;;;;5051552;28;20068;-65
2023/12/29 08:26:47;;;;;;;3.45;0.77;;;11.70;85.40;;;;;;5043198;28;20033;-67
2023/12/29 08:29:15;;;;;;;1.45;0.70;;;11.70;85.40;;;;;;5048248;28;20053;-68
2023/12/29 08:31:43;;;;;;;10.38;1.27;;;11.80;85.50;;;;;;5041789;28;20044;-68
2023/12/29 08:34:09;;;;;;;8.38;1.25;;;11.80;85.40;;;;;;5044188;28;20472;-68
2023/12/29 08:36:35;;;;;;;1.52;1.17;;;11.80;85.40;;;;;;5040685;28;20512;-67
2023/12/29 08:39:01;;;;;;;1.88;0.60;;;11.80;85.60;;;;;;5056208;28;20047;-68
2023/12/29 08:41:27;;;;;;;1.13;0.57;;;11.80;85.60;;;;;;5040885;28;20538;-68
2023/12/29 08:43:53;;;;;;;1.95;0.63;;;11.80;85.70;;;;;;5042137;28;20028;-68
2023/12/29 08:46:19;;;;;;;1.90;0.98;;;11.80;85.60;;;;;;5051209;28;20032;-68
2023/12/29 08:48:45;;;;;;;2.00;0.80;;;11.80;85.60;;;;;;5034105;28;20531;-65
2023/12/29 08:51:10;;;;;;;1.85;0.63;;;11.80;85.60;;;;;;5037904;28;20037;-65
2023/12/29 08:53:36;;;;;;;0.93;0.77;;;11.80;85.60;;;;;;5047964;28;20041;-66
2023/12/29 08:56:02;;;;;;;1.95;1.10;;;11.80;85.60;;;;;;5036924;28;20029;-65
2023/12/29 08:58:28;;;;;;;2.03;0.80;;;11.80;85.60;;;;;;5047578;28;20057;-63
2023/12/29 09:00:54;;;;;;;3.35;1.92;;;11.80;85.50;;;;;;5038613;28;20063;-68
2023/12/29 09:03:20;;;;;;;2.15;1.30;;;11.90;85.50;;;;;;5045203;28;20064;-67
2023/12/29 09:05:45;;;;;;;1.80;1.00;;;11.90;85.40;;;;;;5052442;28;20032;-64
2023/12/29 09:08:11;;;;;;;1.55;1.05;;;11.90;85.40;;;;;;5032507;28;20116;-64
2023/12/29 09:10:39;;;;;;;5.13;1.02;;;11.90;85.30;;;;;;5036168;28;20036;-64
2023/12/29 09:13:05;;;;;;;1.35;1.10;;;11.90;85.20;;;;;;5041202;28;20033;-64
2023/12/29 09:15:31;;;;;;;2.63;0.90;;;11.90;85.00;;;;;;5048752;28;20055;-64
2023/12/29 09:17:57;;;;;;;3.90;1.48;;;11.90;85.50;;;;;;5043559;28;20086;-64
2023/12/29 09:20:23;;;;;;;1.38;0.73;;;12.00;84.90;;;;;;5027041;28;20377;-63
2023/12/29 09:22:49;;;;;;;0.98;0.80;;;11.90;84.70;;;;;;5040800;28;20029;-64
2023/12/29 09:25:15;;;;;;;2.97;0.95;;;11.90;84.60;;;;;;5052452;28;20513;-64
2023/12/29 09:27:41;;;;;;;5.93;0.75;;;12.00;84.70;;;;;;5052793;28;20048;-64
2023/12/29 09:30:07;;;;;;;1.10;0.73;;;12.00;84.60;;;;;;5041890;28;21082;-64
2023/12/29 09:32:33;;;;;;;2.53;0.77;;;12.00;84.40;;;;;;5037390;28;20025;-64
2023/12/29 09:34:59;;;;;;;4.00;0.95;;;12.00;84.30;;;;;;5038873;28;20092;-64
2023/12/29 09:37:27;;;;;;;2.00;0.93;;;12.00;84.00;;;;;;5044390;28;20044;-64
2023/12/29 09:39:52;;;;;;;2.58;0.77;;;12.00;83.80;;;;;;5037141;28;20745;-68
2023/12/29 09:42:28;;;;;;;1.23;0.90;;;12.10;83.80;;;;;;5031462;28;20056;-76
2023/12/29 09:44:54;;;;;;;0.75;0.70;;;12.10;83.80;;;;;;5048485;28;20039;-67
2023/12/29 09:47:24;;;;;;;1.08;0.75;;;12.20;83.80;;;;;;5052216;28;20534;-67
2023/12/29 09:49:53;;;;;;;0.93;0.73;;;12.10;83.60;;;;;;5038581;28;20408;-67
2023/12/29 09:52:21;;;;;;;3.22;1.05;;;12.10;83.50;;;;;;5046978;28;20017;-63
2023/12/29 09:54:49;;;;;;;2.08;0.98;;;12.10;83.40;;;;;;5050400;28;20728;-63
2023/12/29 09:57:16;;;;;;;1.40;0.90;;;12.20;83.50;;;;;;5028513;28;20084;-62
2023/12/29 09:59:42;;;;;;;5.28;1.55;;;12.20;83.20;;;;;;5037515;28;20393;-63
2023/12/29 10:02:18;;;;;;;2.47;0.70;;;12.20;83.10;;;;;;5033448;28;20029;-63
2023/12/29 10:04:44;;;;;;;1.15;0.80;;;12.20;83.10;;;;;;5031910;28;20033;-63
2023/12/29 10:07:17;;;;;;;3.92;1.17;;;12.20;83.00;;;;;;5045264;28;21004;-63
2023/12/29 10:09:45;;;;;;;2.38;0.93;;;12.20;82.80;;;;;;5035807;28;20511;-63
2023/12/29 10:12:12;;;;;;;0.75;0.50;;;12.20;82.80;;;;;;5036961;28;20375;-63
2023/12/29 10:14:48;;;;;;;3.97;1.00;;;12.30;82.70;;;;;;5036691;28;20041;-63
2023/12/29 10:17:28;;;;;;;1.35;0.90;;;12.30;82.60;;;;;;5045240;28;20515;-63
2023/12/29 10:20:06;;;;;;;0.38;0.32;;;12.30;82.30;;;;;;5042336;28;20018;-67
2023/12/29 10:22:46;;;;;;;2.08;1.42;;;12.40;82.40;;;;;;5036289;28;20048;-67
2023/12/29 10:25:12;;;;;;;1.02;0.52;;;12.50;82.40;;;;;;5059319;28;20032;-67
2023/12/29 10:27:38;;;;;;;0.52;0.40;;;12.50;82.20;;;;;;5038495;28;20067;-66
2023/12/29 10:30:05;;;;;;;4.22;0.80;;;12.50;82.10;;;;;;5043929;28;20036;-67
2023/12/29 10:32:31;;;;;;;1.60;0.90;;;12.50;82.20;;;;;;5040345;28;20052;-67
2023/12/29 10:35:12;;;;;;;1.02;0.73;;;12.50;82.30;;;;;;5039097;28;20065;-67
2023/12/29 10:37:38;;;;;;;2.33;1.25;;;12.50;82.10;;;;;;5029669;28;20086;-67
2023/12/29 10:40:05;;;;;;;1.58;0.75;;;12.40;82.40;;;;;;5041185;28;20435;-67
2023/12/29 10:42:31;;;;;;;0.88;0.80;;;12.40;82.50;;;;;;5049160;28;20087;-67
2023/12/29 10:45:07;;;;;;;5.03;1.23;;;12.40;82.40;;;;;;5043931;28;20522;-67
2023/12/29 10:47:35;;;;;;;1.08;0.60;;;12.40;82.40;;;;;;5038056;28;20499;-67
2023/12/29 10:50:03;;;;;;;2.33;0.90;;;12.50;82.20;;;;;;5045206;28;20071;-67
2023/12/29 10:52:30;;;;;;;2.10;0.68;;;12.60;82.20;;;;;;5037061;28;20041;-67
2023/12/29 10:55:10;;;;;;;1.77;0.60;;;12.80;82.00;;;;;;5039486;28;20889;-67
2023/12/29 10:57:37;;;;;;;0.70;0.60;;;12.90;81.40;;;;;;5063903;28;20040;-63
2023/12/29 11:00:05;;;;;;;2.70;0.95;;;12.90;81.00;;;;;;5042292;28;20142;-63
2023/12/29 11:02:32;;;;;;;0.40;0.40;;;12.90;80.90;;;;;;5043630;28;20033;-63
2023/12/29 11:05:06;;;;;;;1.08;0.82;;;13.10;80.90;;;;;;5034094;28;20037;-63
2023/12/29 11:07:32;;;;;;;0.80;0.80;;;13.20;80.00;;;;;;5041894;28;20032;-63
2023/12/29 11:10:02;;;;;;;0.68;0.60;;;13.10;79.90;;;;;;5036591;28;20024;-63
2023/12/29 11:12:33;;;;;;;1.20;0.77;;;13.10;80.20;;;;;;5044632;28;20035;-63
2023/12/29 11:15:05;;;;;;;1.38;0.80;;;13.10;80.40;;;;;;5038020;28;20346;-63
2023/12/29 11:17:35;;;;;;;0.98;0.55;;;13.00;80.20;;;;;;5044657;28;20021;-63
2023/12/29 11:20:03;;;;;;;1.88;1.02;;;12.90;80.20;;;;;;5034633;28;20029;-63
2023/12/29 11:22:30;;;;;;;0.52;0.40;;;12.90;80.40;;;;;;5046385;28;20035;-64
2023/12/29 11:24:59;;;;;;;1.05;0.52;;;12.90;80.50;;;;;;5044762;28;20032;-63
2023/12/29 11:27:29;;;;;;;0.82;0.47;;;12.90;80.20;;;;;;5029976;28;20041;-63
2023/12/29 11:29:56;;;;;;;1.15;0.70;;;13.10;79.90;;;;;;5040849;28;20024;-63
2023/12/29 11:32:30;;;;;;;2.05;0.80;;;13.20;78.90;;;;;;5037326;28;20033;-63
2023/12/29 11:35:12;;;;;;;4.22;0.60;;;13.40;78.00;;;;;;5037800;28;20092;-63
2023/12/29 11:37:57;;;;;;;2.20;0.77;;;13.40;77.40;;;;;;5043597;28;20032;-63
2023/12/29 11:40:41;;;;;;;4.18;0.68;;;13.60;77.50;;;;;;5043254;28;20488;-63
2023/12/29 11:43:14;;;;;;;2.35;0.77;;;13.70;77.20;;;;;;5038489;28;20036;-63
2023/12/29 11:45:39;;;;;;;1.80;0.85;;;13.90;76.80;;;;;;5047076;28;20021;-67
2023/12/29 11:48:06;;;;;;;0.70;0.57;;;14.00;75.30;;;;;;5048284;28;20025;-67
2023/12/29 11:50:33;;;;;;;1.13;0.55;;;13.90;75.00;;;;;;5045662;28;20063;-67
2023/12/29 11:52:59;;;;;;;3.33;1.05;;;14.00;75.00;;;;;;5043509;28;20047;-67
2023/12/29 11:55:39;;;;;;;4.30;0.70;;;14.00;74.50;;;;;;5037166;28;20045;-67
2023/12/29 11:58:27;;;;;;;1.92;0.77;;;14.00;74.70;;;;;;5049499;28;20029;-67
2023/12/29 12:00:53;;;;;;;1.13;0.77;;;14.10;74.10;;;;;;5049227;28;20040;-67
2023/12/29 12:03:34;;;;;;;4.65;1.15;;;14.20;73.70;;;;;;5046245;28;20029;-67
2023/12/29 12:06:03;;;;;;;0.93;0.70;;;14.20;73.50;;;;;;5047261;28;20103;-67
2023/12/29 12:08:35;;;;;;;1.77;0.80;;;14.00;74.10;;;;;;5049896;28;20372;-68
2023/12/29 12:11:19;;;;;;;;;;;13.90;74.30;;;;;;5044337;28;20031;-67
2023/12/29 12:13:46;;;;;;;0.70;0.50;;;13.70;74.60;;;;;;5050083;28;19913;-67
2023/12/29 12:16:52;;;;;;;1.70;0.60;;;13.60;75.30;;;;;;5038604;28;20094;-67
2023/12/29 12:19:21;;;;;;;1.55;0.95;;;13.60;75.90;;;;;;5045839;28;20496;-67
2023/12/29 12:21:50;;;;;;;4.53;1.30;;;13.50;75.90;;;;;;5046793;28;20415;-67
2023/12/29 12:24:19;;;;;;;0.47;0.40;;;13.50;76.10;;;;;;5041469;28;20481;-64
2023/12/29 12:26:44;;;;;;;0.77;0.70;;;13.50;76.40;;;;;;5043361;28;20024;-63
2023/12/29 12:29:13;;;;;;;4.38;0.88;;;13.40;76.20;;;;;;5047756;28;20404;-63
2023/12/29 12:31:52;;;;;;;1.73;0.82;;;13.40;76.40;;;;;;5050730;28;20467;-63
2023/12/29 12:34:18;;;;;;;4.88;1.17;;;13.50;76.30;;;;;;5037243;28;20025;-63
2023/12/29 12:36:51;;;;;;;3.70;1.08;;;13.50;76.10;;;;;;5051999;28;20147;-63
2023/12/29 12:39:17;;;;;;;4.60;0.90;;;13.50;76.20;;;;;;5043298;28;20496;-63
2023/12/29 12:41:43;;;;;;;1.15;0.88;;;13.60;76.00;;;;;;5050737;28;20040;-63
2023/12/29 12:44:14;;;;;;;0.50;0.50;;;13.60;75.70;;;;;;5045335;28;20515;-63
2023/12/29 12:46:57;;;;;;;2.17;0.98;;;13.50;76.00;;;;;;5050377;28;20380;-63
2023/12/29 12:49:23;;;;;;;1.90;0.95;;;13.50;76.20;;;;;;5039101;28;20043;-63